createdAt,value
2018-04-07T00:00:33.936Z,0
2018-04-07T00:01:34.587Z,0
2018-04-07T00:02:35.236Z,0
2018-04-07T00:03:35.886Z,0
2018-04-07T00:04:36.536Z,0
2018-04-07T00:05:37.185Z,0
2018-04-07T00:06:37.836Z,0
2018-04-07T00:07:38.485Z,0
2018-04-07T00:08:39.137Z,0
2018-04-07T00:09:39.787Z,0
2018-04-07T00:10:40.438Z,0
2018-04-07T00:11:41.087Z,0
2018-04-07T00:12:41.738Z,0
2018-04-07T00:13:42.387Z,0
2018-04-07T00:14:43.038Z,0
2018-04-07T00:15:43.687Z,0
2018-04-07T00:16:44.337Z,0
2018-04-07T00:17:44.987Z,0
2018-04-07T00:18:45.637Z,0
2018-04-07T00:19:46.288Z,0
2018-04-07T00:20:46.937Z,0
2018-04-07T00:21:47.588Z,0
2018-04-07T00:22:48.237Z,0
2018-04-07T00:23:48.888Z,0
2018-04-07T00:24:49.537Z,0
2018-04-07T00:25:50.191Z,0
2018-04-07T00:26:50.838Z,0
2018-04-07T00:27:51.487Z,0
2018-04-07T00:28:52.137Z,0
2018-04-07T00:29:52.786Z,0
2018-04-07T00:30:53.437Z,0
2018-04-07T00:31:54.087Z,0
2018-04-07T00:32:54.741Z,0
2018-04-07T00:33:55.428Z,0
2018-04-07T00:34:56.076Z,0
2018-04-07T00:35:56.729Z,0
2018-04-07T00:36:57.411Z,0
2018-04-07T00:37:58.061Z,0
2018-04-07T00:38:58.712Z,0
2018-04-07T00:39:59.361Z,0
2018-04-07T00:41:00.022Z,0
2018-04-07T00:42:00.662Z,0
2018-04-07T00:43:01.313Z,0
2018-04-07T00:44:02.000Z,0
2018-04-07T00:45:02.650Z,0
2018-04-07T00:46:03.301Z,0
2018-04-07T00:47:03.949Z,0
2018-04-07T00:48:04.600Z,0
2018-04-07T00:49:05.250Z,0
2018-04-07T00:50:05.900Z,0
2018-04-07T00:51:06.551Z,0
2018-04-07T00:52:07.201Z,0
2018-04-07T00:53:07.851Z,0
2018-04-07T00:54:08.500Z,0
2018-04-07T00:55:09.150Z,0
2018-04-07T00:56:09.801Z,0
2018-04-07T00:57:10.449Z,0
2018-04-07T00:58:11.097Z,0
2018-04-07T00:59:11.752Z,0
2018-04-07T01:00:12.398Z,0
2018-04-07T01:01:13.049Z,0
2018-04-07T01:02:13.698Z,0
2018-04-07T01:03:14.349Z,0
2018-04-07T01:04:14.999Z,0
2018-04-07T01:05:15.648Z,0
2018-04-07T01:06:16.297Z,0
2018-04-07T01:07:16.983Z,0
2018-04-07T01:08:17.634Z,0
2018-04-07T01:09:18.285Z,0
2018-04-07T01:10:18.937Z,0
2018-04-07T01:11:19.585Z,0
2018-04-07T01:12:20.235Z,0
2018-04-07T01:13:20.889Z,0
2018-04-07T01:14:21.571Z,0
2018-04-07T01:15:22.222Z,0
2018-04-07T01:16:22.922Z,0
2018-04-07T01:17:23.575Z,0
2018-04-07T01:18:24.222Z,0
2018-04-07T01:19:24.874Z,0
2018-04-07T01:20:25.521Z,0
2018-04-07T01:21:26.172Z,0
2018-04-07T01:22:26.822Z,0
2018-04-07T01:23:27.471Z,0
2018-04-07T01:24:28.121Z,0
2018-04-07T01:25:28.775Z,0
2018-04-07T01:26:29.422Z,0
2018-04-07T01:27:30.074Z,0
2018-04-07T01:28:30.721Z,0
2018-04-07T01:29:31.371Z,0
2018-04-07T01:30:32.020Z,0
2018-04-07T01:31:32.668Z,0
2018-04-07T01:32:33.323Z,0
2018-04-07T01:33:33.969Z,0
2018-04-07T01:34:34.619Z,0
2018-04-07T01:35:35.267Z,0
2018-04-07T01:36:35.919Z,0
2018-04-07T01:37:36.569Z,0
2018-04-07T01:38:37.300Z,0
2018-04-07T01:39:37.882Z,0
2018-04-07T01:40:38.530Z,0
2018-04-07T01:41:39.183Z,0
2018-04-07T01:42:39.828Z,0
2018-04-07T01:43:40.476Z,0
2018-04-07T01:44:41.131Z,0
2018-04-07T01:45:41.777Z,0
2018-04-07T01:46:42.427Z,0
2018-04-07T01:47:43.076Z,0
2018-04-07T01:48:43.726Z,0
2018-04-07T01:49:44.376Z,0
2018-04-07T01:50:45.026Z,0
2018-04-07T01:51:45.680Z,0
2018-04-07T01:52:46.325Z,0
2018-04-07T01:53:46.974Z,0
2018-04-07T01:54:47.623Z,0
2018-04-07T01:55:48.274Z,0
2018-04-07T01:56:48.924Z,0
2018-04-07T01:57:49.572Z,0
2018-04-07T01:58:50.221Z,0
2018-04-07T01:59:50.873Z,0
2018-04-07T02:00:51.521Z,0
2018-04-07T02:01:52.172Z,0
2018-04-07T02:02:52.823Z,0
2018-04-07T02:03:53.477Z,0
2018-04-07T02:04:54.157Z,0
2018-04-07T02:05:54.805Z,0
2018-04-07T02:06:55.454Z,0
2018-04-07T02:07:56.103Z,0
2018-04-07T02:08:56.788Z,0
2018-04-07T02:09:57.438Z,0
2018-04-07T02:10:58.088Z,0
2018-04-07T02:11:58.740Z,0
2018-04-07T02:12:59.387Z,0
2018-04-07T02:14:00.073Z,0
2018-04-07T02:15:00.727Z,0
2018-04-07T02:16:01.373Z,0
2018-04-07T02:17:02.058Z,0
2018-04-07T02:18:02.709Z,0
2018-04-07T02:19:03.357Z,0
2018-04-07T02:20:04.013Z,0
2018-04-07T02:21:04.659Z,0
2018-04-07T02:22:05.307Z,0
2018-04-07T02:23:05.994Z,0
2018-04-07T02:24:06.643Z,0
2018-04-07T02:25:07.294Z,0
2018-04-07T02:26:07.943Z,0
2018-04-07T02:27:08.594Z,0
2018-04-07T02:28:09.242Z,0
2018-04-07T02:29:09.891Z,0
2018-04-07T02:30:10.542Z,0
2018-04-07T02:31:11.192Z,0
2018-04-07T02:32:11.841Z,0
2018-04-07T02:33:12.530Z,0
2018-04-07T02:34:13.177Z,0
2018-04-07T02:35:13.825Z,0
2018-04-07T02:36:14.476Z,0
2018-04-07T02:37:15.164Z,0
2018-04-07T02:38:15.815Z,0
2018-04-07T02:39:16.464Z,0
2018-04-07T02:40:17.152Z,0
2018-04-07T02:41:17.801Z,0
2018-04-07T02:42:18.452Z,0
2018-04-07T02:43:19.100Z,0
2018-04-07T02:44:19.748Z,0
2018-04-07T02:45:20.443Z,0
2018-04-07T02:46:21.122Z,0
2018-04-07T02:47:21.776Z,0
2018-04-07T02:48:22.422Z,0
2018-04-07T02:49:23.071Z,0
2018-04-07T02:50:23.739Z,0
2018-04-07T02:51:24.369Z,0
2018-04-07T02:52:25.019Z,0
2018-04-07T02:53:25.669Z,0
2018-04-07T02:54:26.320Z,0
2018-04-07T02:55:26.967Z,0
2018-04-07T02:56:27.662Z,0
2018-04-07T02:57:28.340Z,0
2018-04-07T02:58:28.990Z,0
2018-04-07T02:59:29.677Z,0
2018-04-07T03:00:30.327Z,0
2018-04-07T03:01:30.975Z,0
2018-04-07T03:02:31.626Z,0
2018-04-07T03:03:32.275Z,0
2018-04-07T03:04:32.926Z,0
2018-04-07T03:05:33.573Z,0
2018-04-07T03:06:34.223Z,0
2018-04-07T03:07:34.871Z,0
2018-04-07T03:08:35.527Z,0
2018-04-07T03:09:36.169Z,0
2018-04-07T03:10:36.820Z,0
2018-04-07T03:11:37.467Z,0
2018-04-07T03:12:38.117Z,0
2018-04-07T03:13:38.767Z,0
2018-04-07T03:14:39.417Z,0
2018-04-07T03:15:40.066Z,0
2018-04-07T03:16:40.714Z,0
2018-04-07T03:17:41.402Z,0
2018-04-07T03:18:42.051Z,0
2018-04-07T03:19:42.702Z,0
2018-04-07T03:20:43.357Z,0
2018-04-07T03:21:44.000Z,0
2018-04-07T03:22:44.650Z,0
2018-04-07T03:23:45.297Z,0
2018-04-07T03:24:45.948Z,0
2018-04-07T03:25:46.597Z,0
2018-04-07T03:26:47.283Z,0
2018-04-07T03:27:47.970Z,0
2018-04-07T03:28:48.656Z,0
2018-04-07T03:29:49.306Z,0
2018-04-07T03:30:49.957Z,0
2018-04-07T03:31:50.606Z,0
2018-04-07T03:32:51.255Z,0
2018-04-07T03:33:51.905Z,0
2018-04-07T03:34:52.558Z,0
2018-04-07T03:35:53.207Z,0
2018-04-07T03:36:53.891Z,0
2018-04-07T03:37:54.543Z,0
2018-04-07T03:38:55.192Z,0
2018-04-07T03:39:55.842Z,0
2018-04-07T03:40:56.490Z,0
2018-04-07T03:41:57.144Z,0
2018-04-07T03:42:57.789Z,0
2018-04-07T03:43:58.439Z,0
2018-04-07T03:44:59.089Z,0
2018-04-07T03:45:59.738Z,0
2018-04-07T03:47:00.388Z,0
2018-04-07T03:48:01.041Z,0
2018-04-07T03:49:01.690Z,0
2018-04-07T03:50:02.339Z,0
2018-04-07T03:51:02.990Z,0
2018-04-07T03:52:03.642Z,0
2018-04-07T03:53:04.289Z,0
2018-04-07T03:54:04.937Z,0
2018-04-07T03:55:05.590Z,0
2018-04-07T03:56:06.236Z,0
2018-04-07T03:57:06.894Z,0
2018-04-07T03:58:07.535Z,0
2018-04-07T03:59:08.184Z,0
2018-04-07T04:00:08.837Z,0
2018-04-07T04:01:09.482Z,0
2018-04-07T04:02:10.132Z,0
2018-04-07T04:03:10.781Z,0
2018-04-07T04:04:11.432Z,0
2018-04-07T04:05:12.080Z,0
2018-04-07T04:06:12.730Z,0
2018-04-07T04:07:13.378Z,0
2018-04-07T04:08:14.030Z,0
2018-04-07T04:09:14.677Z,0
2018-04-07T04:10:15.331Z,0
2018-04-07T04:11:15.977Z,0
2018-04-07T04:12:16.627Z,0
2018-04-07T04:13:17.275Z,0
2018-04-07T04:14:17.924Z,0
2018-04-07T04:15:18.574Z,0
2018-04-07T04:16:19.224Z,0
2018-04-07T04:17:19.873Z,0
2018-04-07T04:18:20.523Z,0
2018-04-07T04:19:21.177Z,0
2018-04-07T04:20:21.827Z,0
2018-04-07T04:21:22.478Z,0
2018-04-07T04:22:23.128Z,0
2018-04-07T04:23:23.786Z,0
2018-04-07T04:24:24.465Z,0
2018-04-07T04:25:25.117Z,0
2018-04-07T04:26:25.766Z,0
2018-04-07T04:27:26.417Z,0
2018-04-07T04:28:27.071Z,0
2018-04-07T04:29:27.755Z,0
2018-04-07T04:30:28.406Z,0
2018-04-07T04:31:29.057Z,0
2018-04-07T04:32:29.707Z,0
2018-04-07T04:33:30.357Z,0
2018-04-07T04:34:31.008Z,0
2018-04-07T04:35:31.662Z,0
2018-04-07T04:36:32.311Z,0
2018-04-07T04:37:32.963Z,0
2018-04-07T04:38:33.613Z,5
2018-04-07T04:39:34.266Z,5
2018-04-07T04:40:34.953Z,5
2018-04-07T04:41:35.605Z,5
2018-04-07T04:42:36.254Z,5
2018-04-07T04:43:36.907Z,5
2018-04-07T04:44:37.558Z,5
2018-04-07T04:45:38.210Z,5
2018-04-07T04:46:38.898Z,5
2018-04-07T04:47:39.585Z,5
2018-04-07T04:48:40.237Z,11
2018-04-07T04:49:40.889Z,11
2018-04-07T04:50:41.546Z,11
2018-04-07T04:51:42.195Z,11
2018-04-07T04:52:42.846Z,11
2018-04-07T04:53:43.499Z,11
2018-04-07T04:54:44.188Z,11
2018-04-07T04:55:44.840Z,16
2018-04-07T04:56:45.528Z,16
2018-04-07T04:57:46.180Z,16
2018-04-07T04:58:46.833Z,16
2018-04-07T04:59:47.488Z,16
2018-04-07T05:00:48.138Z,16
2018-04-07T05:01:48.792Z,16
2018-04-07T05:02:49.443Z,16
2018-04-07T05:03:50.095Z,22
2018-04-07T05:04:50.747Z,22
2018-04-07T05:05:51.401Z,22
2018-04-07T05:06:52.052Z,22
2018-04-07T05:07:52.704Z,22
2018-04-07T05:08:53.355Z,22
2018-04-07T05:09:54.009Z,22
2018-04-07T05:10:54.661Z,28
2018-04-07T05:11:55.317Z,28
2018-04-07T05:12:55.969Z,28
2018-04-07T05:13:56.622Z,28
2018-04-07T05:14:57.274Z,28
2018-04-07T05:15:57.929Z,28
2018-04-07T05:16:58.583Z,28
2018-04-07T05:17:59.236Z,33
2018-04-07T05:18:59.889Z,33
2018-04-07T05:20:00.543Z,33
2018-04-07T05:21:01.196Z,33
2018-04-07T05:22:01.854Z,33
2018-04-07T05:23:02.507Z,33
2018-04-07T05:24:03.196Z,33
2018-04-07T05:25:03.850Z,39
2018-04-07T05:26:04.502Z,39
2018-04-07T05:27:05.156Z,39
2018-04-07T05:28:05.810Z,39
2018-04-07T05:29:06.514Z,39
2018-04-07T05:30:07.169Z,39
2018-04-07T05:31:07.822Z,39
2018-04-07T05:32:08.478Z,45
2018-04-07T05:33:09.129Z,45
2018-04-07T05:34:09.784Z,45
2018-04-07T05:35:10.438Z,45
2018-04-07T05:36:11.093Z,45
2018-04-07T05:37:11.743Z,45
2018-04-07T05:38:12.397Z,45
2018-04-07T05:39:13.049Z,45
2018-04-07T05:40:13.706Z,45
2018-04-07T05:41:14.361Z,50
2018-04-07T05:42:15.013Z,50
2018-04-07T05:43:15.703Z,50
2018-04-07T05:44:16.356Z,50
2018-04-07T05:45:17.010Z,50
2018-04-07T05:46:17.665Z,50
2018-04-07T05:47:18.320Z,50
2018-04-07T05:48:18.972Z,50
2018-04-07T05:49:19.626Z,50
2018-04-07T05:50:20.278Z,56
2018-04-07T05:51:20.934Z,56
2018-04-07T05:52:21.588Z,56
2018-04-07T05:53:22.241Z,56
2018-04-07T05:54:22.895Z,56
2018-04-07T05:55:23.549Z,56
2018-04-07T05:56:24.204Z,56
2018-04-07T05:57:24.894Z,56
2018-04-07T05:58:25.547Z,61
2018-04-07T05:59:26.201Z,61
2018-04-07T06:00:26.856Z,61
2018-04-07T06:01:27.511Z,61
2018-04-07T06:02:28.166Z,61
2018-04-07T06:03:28.833Z,61
2018-04-07T06:04:29.477Z,61
2018-04-07T06:05:30.129Z,61
2018-04-07T06:06:30.782Z,67
2018-04-07T06:07:31.442Z,67
2018-04-07T06:08:32.094Z,67
2018-04-07T06:09:32.748Z,67
2018-04-07T06:10:33.403Z,67
2018-04-07T06:11:34.058Z,67
2018-04-07T06:12:34.712Z,67
2018-04-07T06:13:35.367Z,67
2018-04-07T06:14:36.023Z,67
2018-04-07T06:15:36.714Z,73
2018-04-07T06:16:37.368Z,73
2018-04-07T06:17:38.023Z,73
2018-04-07T06:18:38.677Z,73
2018-04-07T06:19:39.333Z,73
2018-04-07T06:20:39.987Z,73
2018-04-07T06:21:40.642Z,73
2018-04-07T06:22:41.300Z,73
2018-04-07T06:23:41.952Z,73
2018-04-07T06:24:42.606Z,73
2018-04-07T06:25:43.266Z,73
2018-04-07T06:26:43.917Z,73
2018-04-07T06:27:44.570Z,73
2018-04-07T06:28:45.234Z,73
2018-04-07T06:29:45.965Z,78
2018-04-07T06:30:46.619Z,78
2018-04-07T06:31:47.276Z,78
2018-04-07T06:32:47.929Z,78
2018-04-07T06:33:48.584Z,78
2018-04-07T06:34:49.259Z,78
2018-04-07T06:35:49.893Z,78
2018-04-07T06:36:50.548Z,78
2018-04-07T06:37:51.204Z,78
2018-04-07T06:38:51.859Z,78
2018-04-07T06:39:52.513Z,78
2018-04-07T06:40:53.168Z,78
2018-04-07T06:41:53.822Z,78
2018-04-07T06:42:54.478Z,78
2018-04-07T06:43:55.138Z,78
2018-04-07T06:44:55.790Z,78
2018-04-07T06:45:56.443Z,78
2018-04-07T06:46:57.102Z,78
2018-04-07T06:47:57.755Z,84
2018-04-07T06:48:58.412Z,90
2018-04-07T06:49:59.068Z,95
2018-04-07T06:50:59.723Z,95
2018-04-07T06:52:00.378Z,101
2018-04-07T06:53:01.036Z,106
2018-04-07T06:54:01.692Z,112
2018-04-07T06:55:02.393Z,123
2018-04-07T06:56:03.008Z,135
2018-04-07T06:57:03.667Z,146
2018-04-07T06:58:04.358Z,185
2018-04-07T06:59:05.015Z,213
2018-04-07T07:00:05.673Z,230
2018-04-07T07:01:06.332Z,241
2018-04-07T07:02:06.991Z,247
2018-04-07T07:03:07.651Z,264
2018-04-07T07:04:08.313Z,275
2018-04-07T07:05:08.973Z,275
2018-04-07T07:06:09.635Z,247
2018-04-07T07:07:10.295Z,225
2018-04-07T07:08:10.953Z,236
2018-04-07T07:09:11.614Z,225
2018-04-07T07:10:12.276Z,236
2018-04-07T07:11:12.936Z,264
2018-04-07T07:12:13.597Z,275
2018-04-07T07:13:14.257Z,281
2018-04-07T07:14:14.919Z,275
2018-04-07T07:15:15.584Z,275
2018-04-07T07:16:16.247Z,281
2018-04-07T07:17:16.910Z,281
2018-04-07T07:18:17.623Z,281
2018-04-07T07:19:18.234Z,286
2018-04-07T07:20:18.932Z,286
2018-04-07T07:21:19.596Z,286
2018-04-07T07:22:20.263Z,286
2018-04-07T07:23:20.926Z,286
2018-04-07T07:24:21.586Z,281
2018-04-07T07:25:22.253Z,281
2018-04-07T07:26:22.918Z,286
2018-04-07T07:27:23.583Z,286
2018-04-07T07:28:24.246Z,286
2018-04-07T07:29:24.910Z,275
2018-04-07T07:30:25.611Z,270
2018-04-07T07:31:26.275Z,275
2018-04-07T07:32:26.940Z,270
2018-04-07T07:33:27.647Z,275
2018-04-07T07:34:28.307Z,270
2018-04-07T07:35:28.974Z,270
2018-04-07T07:36:29.708Z,275
2018-04-07T07:37:30.339Z,281
2018-04-07T07:38:31.004Z,281
2018-04-07T07:39:31.676Z,286
2018-04-07T07:40:32.339Z,275
2018-04-07T07:41:33.005Z,275
2018-04-07T07:42:33.707Z,270
2018-04-07T07:43:34.374Z,270
2018-04-07T07:44:35.038Z,270
2018-04-07T07:45:35.705Z,270
2018-04-07T07:46:36.373Z,275
2018-04-07T07:47:37.042Z,286
2018-04-07T07:48:37.709Z,281
2018-04-07T07:49:38.379Z,281
2018-04-07T07:50:39.081Z,281
2018-04-07T07:51:39.748Z,286
2018-04-07T07:52:40.414Z,281
2018-04-07T07:53:41.082Z,281
2018-04-07T07:54:41.750Z,286
2018-04-07T07:55:42.420Z,281
2018-04-07T07:56:43.088Z,281
2018-04-07T07:57:43.754Z,281
2018-04-07T07:58:44.423Z,281
2018-04-07T07:59:45.128Z,281
2018-04-07T08:00:45.794Z,281
2018-04-07T08:01:46.464Z,281
2018-04-07T08:02:47.137Z,281
2018-04-07T08:03:47.803Z,275
2018-04-07T08:04:48.469Z,275
2018-04-07T08:05:49.136Z,275
2018-04-07T08:06:49.804Z,275
2018-04-07T08:07:50.474Z,286
2018-04-07T08:08:51.142Z,275
2018-04-07T08:09:51.809Z,275
2018-04-07T08:10:52.480Z,275
2018-04-07T08:11:53.149Z,275
2018-04-07T08:12:53.817Z,275
2018-04-07T08:13:54.486Z,275
2018-04-07T08:14:55.154Z,275
2018-04-07T08:15:55.822Z,275
2018-04-07T08:16:56.495Z,270
2018-04-07T08:17:57.199Z,270
2018-04-07T08:18:57.869Z,270
2018-04-07T08:19:58.539Z,264
2018-04-07T08:20:59.214Z,264
2018-04-07T08:21:59.919Z,264
2018-04-07T08:23:00.583Z,264
2018-04-07T08:24:01.254Z,258
2018-04-07T08:25:01.925Z,258
2018-04-07T08:26:02.593Z,258
2018-04-07T08:27:03.263Z,253
2018-04-07T08:28:03.934Z,247
2018-04-07T08:29:04.604Z,247
2018-04-07T08:30:05.310Z,241
2018-04-07T08:31:06.029Z,236
2018-04-07T08:32:06.747Z,236
2018-04-07T08:33:07.365Z,230
2018-04-07T08:34:08.035Z,225
2018-04-07T08:35:08.700Z,225
2018-04-07T08:36:09.370Z,225
2018-04-07T08:37:14.776Z,219
2018-04-07T08:38:10.710Z,213
2018-04-07T08:39:11.378Z,213
2018-04-07T08:40:12.046Z,208
2018-04-07T08:41:12.745Z,213
2018-04-07T08:42:13.384Z,208
2018-04-07T08:43:14.091Z,202
2018-04-07T08:44:14.760Z,202
2018-04-07T08:45:15.431Z,202
2018-04-07T08:46:16.100Z,202
2018-04-07T08:47:16.771Z,202
2018-04-07T08:48:17.439Z,196
2018-04-07T08:49:18.109Z,196
2018-04-07T08:50:18.778Z,196
2018-04-07T08:51:19.444Z,191
2018-04-07T08:52:20.112Z,191
2018-04-07T08:53:20.782Z,191
2018-04-07T08:54:21.454Z,185
2018-04-07T08:55:22.124Z,185
2018-04-07T08:56:22.797Z,185
2018-04-07T08:57:23.532Z,180
2018-04-07T08:58:24.166Z,185
2018-04-07T08:59:24.834Z,185
2018-04-07T09:00:25.503Z,185
2018-04-07T09:01:26.173Z,174
2018-04-07T09:02:26.842Z,174
2018-04-07T09:03:27.511Z,174
2018-04-07T09:04:28.177Z,174
2018-04-07T09:05:28.845Z,174
2018-04-07T09:06:29.549Z,174
2018-04-07T09:07:30.220Z,168
2018-04-07T09:08:30.890Z,168
2018-04-07T09:09:31.560Z,168
2018-04-07T09:10:32.228Z,168
2018-04-07T09:11:32.932Z,168
2018-04-07T09:12:33.604Z,168
2018-04-07T09:13:34.307Z,168
2018-04-07T09:14:35.011Z,163
2018-04-07T09:15:35.682Z,163
2018-04-07T09:16:36.347Z,168
2018-04-07T09:17:37.013Z,163
2018-04-07T09:18:37.685Z,163
2018-04-07T09:19:38.350Z,163
2018-04-07T09:20:39.014Z,163
2018-04-07T09:21:39.684Z,163
2018-04-07T09:22:40.356Z,163
2018-04-07T09:23:41.020Z,163
2018-04-07T09:24:41.723Z,157
2018-04-07T09:25:42.392Z,157
2018-04-07T09:26:43.059Z,157
2018-04-07T09:27:43.728Z,157
2018-04-07T09:28:44.396Z,157
2018-04-07T09:29:45.065Z,157
2018-04-07T09:30:45.733Z,157
2018-04-07T09:31:46.400Z,157
2018-04-07T09:32:47.068Z,157
2018-04-07T09:33:47.737Z,151
2018-04-07T09:34:48.405Z,151
2018-04-07T09:35:49.072Z,151
2018-04-07T09:36:49.746Z,151
2018-04-07T09:37:50.410Z,151
2018-04-07T09:38:51.080Z,151
2018-04-07T09:39:51.749Z,151
2018-04-07T09:40:52.417Z,151
2018-04-07T09:41:53.084Z,146
2018-04-07T09:42:53.753Z,146
2018-04-07T09:43:54.424Z,146
2018-04-07T09:44:55.088Z,151
2018-04-07T09:45:55.758Z,146
2018-04-07T09:46:56.465Z,146
2018-04-07T09:47:57.132Z,146
2018-04-07T09:48:57.799Z,140
2018-04-07T09:49:58.468Z,140
2018-04-07T09:50:59.182Z,140
2018-04-07T09:51:59.805Z,140
2018-04-07T09:53:00.474Z,140
2018-04-07T09:54:01.144Z,140
2018-04-07T09:55:01.815Z,140
2018-04-07T09:56:02.489Z,140
2018-04-07T09:57:03.155Z,140
2018-04-07T09:58:03.818Z,140
2018-04-07T09:59:04.524Z,140
2018-04-07T10:00:05.192Z,140
2018-04-07T10:01:05.863Z,135
2018-04-07T10:02:06.531Z,135
2018-04-07T10:03:07.198Z,135
2018-04-07T10:04:07.865Z,135
2018-04-07T10:05:08.533Z,135
2018-04-07T10:06:09.202Z,135
2018-04-07T10:07:09.870Z,135
2018-04-07T10:08:10.537Z,129
2018-04-07T10:09:11.206Z,129
2018-04-07T10:10:11.877Z,129
2018-04-07T10:11:12.546Z,129
2018-04-07T10:12:13.215Z,123
2018-04-07T10:13:13.882Z,123
2018-04-07T10:14:14.551Z,123
2018-04-07T10:15:15.218Z,123
2018-04-07T10:16:15.887Z,123
2018-04-07T10:17:16.554Z,123
2018-04-07T10:18:17.228Z,123
2018-04-07T10:19:17.895Z,123
2018-04-07T10:20:18.564Z,123
2018-04-07T10:21:19.233Z,123
2018-04-07T10:22:19.896Z,123
2018-04-07T10:23:20.601Z,123
2018-04-07T10:24:21.268Z,123
2018-04-07T10:25:21.935Z,123
2018-04-07T10:26:22.609Z,123
2018-04-07T10:27:23.272Z,123
2018-04-07T10:28:23.939Z,123
2018-04-07T10:29:24.606Z,123
2018-04-07T10:30:25.272Z,123
2018-04-07T10:31:25.938Z,123
2018-04-07T10:32:26.606Z,123
2018-04-07T10:33:27.272Z,123
2018-04-07T10:34:27.941Z,129
2018-04-07T10:35:28.814Z,123
2018-04-07T10:36:29.476Z,123
2018-04-07T10:37:30.142Z,123
2018-04-07T10:38:30.807Z,123
2018-04-07T10:39:31.474Z,123
2018-04-07T10:40:32.145Z,123
2018-04-07T10:41:32.808Z,123
2018-04-07T10:42:33.475Z,123
2018-04-07T10:43:34.140Z,123
2018-04-07T10:44:34.805Z,123
2018-04-07T10:45:35.472Z,123
2018-04-07T10:46:36.142Z,123
2018-04-07T10:47:36.806Z,123
2018-04-07T10:48:37.470Z,123
2018-04-07T10:49:38.141Z,123
2018-04-07T10:50:38.804Z,123
2018-04-07T10:51:39.469Z,123
2018-04-07T10:52:40.163Z,123
2018-04-07T10:53:40.826Z,123
2018-04-07T10:54:41.493Z,118
2018-04-07T10:55:42.160Z,123
2018-04-07T10:56:42.826Z,123
2018-04-07T10:57:43.492Z,123
2018-04-07T10:58:44.158Z,123
2018-04-07T10:59:44.825Z,123
2018-04-07T11:00:45.489Z,129
2018-04-07T11:01:46.155Z,123
2018-04-07T11:02:46.819Z,123
2018-04-07T11:03:47.486Z,123
2018-04-07T11:04:48.152Z,123
2018-04-07T11:05:48.822Z,123
2018-04-07T11:06:49.485Z,123
2018-04-07T11:07:50.149Z,123
2018-04-07T11:08:50.814Z,123
2018-04-07T11:09:51.479Z,123
2018-04-07T11:10:52.146Z,123
2018-04-07T11:11:52.809Z,123
2018-04-07T11:12:53.475Z,123
2018-04-07T11:13:54.141Z,123
2018-04-07T11:14:54.806Z,123
2018-04-07T11:15:55.474Z,123
2018-04-07T11:16:56.174Z,123
2018-04-07T11:17:56.839Z,118
2018-04-07T11:18:57.508Z,118
2018-04-07T11:19:58.171Z,118
2018-04-07T11:20:58.874Z,118
2018-04-07T11:21:59.538Z,118
2018-04-07T11:23:00.204Z,118
2018-04-07T11:24:00.869Z,118
2018-04-07T11:25:01.535Z,118
2018-04-07T11:26:02.202Z,118
2018-04-07T11:27:02.867Z,118
2018-04-07T11:28:03.532Z,118
2018-04-07T11:29:04.198Z,118
2018-04-07T11:30:04.865Z,118
2018-04-07T11:31:05.530Z,118
2018-04-07T11:32:06.195Z,118
2018-04-07T11:33:06.865Z,118
2018-04-07T11:34:07.563Z,118
2018-04-07T11:35:08.229Z,118
2018-04-07T11:36:08.897Z,118
2018-04-07T11:37:09.565Z,118
2018-04-07T11:38:10.232Z,118
2018-04-07T11:39:10.897Z,112
2018-04-07T11:40:11.562Z,112
2018-04-07T11:41:12.228Z,112
2018-04-07T11:42:12.893Z,112
2018-04-07T11:43:13.559Z,112
2018-04-07T11:44:14.224Z,112
2018-04-07T11:45:14.928Z,112
2018-04-07T11:46:15.595Z,112
2018-04-07T11:47:16.260Z,112
2018-04-07T11:48:16.925Z,112
2018-04-07T11:49:17.590Z,112
2018-04-07T11:50:18.255Z,112
2018-04-07T11:51:18.921Z,112
2018-04-07T11:52:19.594Z,112
2018-04-07T11:53:20.290Z,112
2018-04-07T11:54:20.956Z,112
2018-04-07T11:55:21.621Z,112
2018-04-07T11:56:22.286Z,112
2018-04-07T11:57:22.953Z,112
2018-04-07T11:58:23.638Z,112
2018-04-07T11:59:24.288Z,112
2018-04-07T12:00:24.951Z,112
2018-04-07T12:01:25.619Z,118
2018-04-07T12:02:26.351Z,118
2018-04-07T12:03:27.003Z,118
2018-04-07T12:04:27.671Z,118
2018-04-07T12:05:28.336Z,118
2018-04-07T12:06:29.003Z,118
2018-04-07T12:07:29.669Z,118
2018-04-07T12:08:30.335Z,118
2018-04-07T12:09:31.000Z,118
2018-04-07T12:10:31.665Z,118
2018-04-07T12:11:32.361Z,118
2018-04-07T12:12:33.001Z,118
2018-04-07T12:13:33.666Z,118
2018-04-07T12:14:34.332Z,118
2018-04-07T12:15:34.997Z,118
2018-04-07T12:16:35.664Z,118
2018-04-07T12:17:36.330Z,118
2018-04-07T12:18:36.995Z,118
2018-04-07T12:19:37.660Z,118
2018-04-07T12:20:38.327Z,118
2018-04-07T12:21:38.994Z,118
2018-04-07T12:22:39.661Z,118
2018-04-07T12:23:40.326Z,118
2018-04-07T12:24:40.993Z,118
2018-04-07T12:25:41.660Z,118
2018-04-07T12:26:42.327Z,118
2018-04-07T12:27:42.992Z,123
2018-04-07T12:28:43.658Z,118
2018-04-07T12:29:44.326Z,118
2018-04-07T12:30:44.992Z,118
2018-04-07T12:31:45.658Z,118
2018-04-07T12:32:46.324Z,118
2018-04-07T12:33:46.990Z,118
2018-04-07T12:34:47.658Z,118
2018-04-07T12:35:48.326Z,118
2018-04-07T12:36:48.991Z,118
2018-04-07T12:37:49.658Z,118
2018-04-07T12:38:50.327Z,118
2018-04-07T12:39:50.993Z,118
2018-04-07T12:40:51.661Z,118
2018-04-07T12:41:52.326Z,118
2018-04-07T12:42:52.992Z,118
2018-04-07T12:43:53.658Z,118
2018-04-07T12:44:54.325Z,118
2018-04-07T12:45:54.991Z,118
2018-04-07T12:46:55.657Z,118
2018-04-07T12:47:56.324Z,118
2018-04-07T12:48:56.992Z,118
2018-04-07T12:49:57.658Z,118
2018-04-07T12:50:58.323Z,118
2018-04-07T12:51:58.989Z,118
2018-04-07T12:52:59.656Z,118
2018-04-07T12:54:00.321Z,118
2018-04-07T12:55:00.989Z,118
2018-04-07T12:56:01.658Z,118
2018-04-07T12:57:02.325Z,129
2018-04-07T12:58:02.994Z,123
2018-04-07T12:59:03.747Z,123
2018-04-07T13:00:04.415Z,123
2018-04-07T13:01:05.115Z,123
2018-04-07T13:02:05.780Z,123
2018-04-07T13:03:06.447Z,123
2018-04-07T13:04:07.167Z,123
2018-04-07T13:05:07.832Z,123
2018-04-07T13:06:08.498Z,123
2018-04-07T13:07:09.167Z,123
2018-04-07T13:08:09.833Z,123
2018-04-07T13:09:10.499Z,123
2018-04-07T13:10:11.166Z,123
2018-04-07T13:11:11.836Z,123
2018-04-07T13:12:12.500Z,123
2018-04-07T13:13:13.206Z,123
2018-04-07T13:14:13.875Z,123
2018-04-07T13:15:14.544Z,123
2018-04-07T13:16:15.211Z,123
2018-04-07T13:17:15.878Z,123
2018-04-07T13:18:16.544Z,123
2018-04-07T13:19:17.211Z,123
2018-04-07T13:20:17.878Z,123
2018-04-07T13:21:18.544Z,123
2018-04-07T13:22:19.211Z,123
2018-04-07T13:23:19.879Z,123
2018-04-07T13:24:20.553Z,123
2018-04-07T13:25:21.214Z,123
2018-04-07T13:26:21.880Z,123
2018-04-07T13:27:22.582Z,123
2018-04-07T13:28:23.214Z,123
2018-04-07T13:29:23.879Z,123
2018-04-07T13:30:24.546Z,123
2018-04-07T13:31:25.217Z,129
2018-04-07T13:32:25.926Z,123
2018-04-07T13:33:38.368Z,123
2018-04-07T13:34:27.252Z,123
2018-04-07T13:35:27.921Z,129
2018-04-07T13:36:28.585Z,123
2018-04-07T13:37:29.252Z,123
2018-04-07T13:38:29.921Z,123
2018-04-07T13:39:30.588Z,123
2018-04-07T13:40:31.302Z,123
2018-04-07T13:41:31.958Z,123
2018-04-07T13:42:32.625Z,123
2018-04-07T13:43:33.292Z,123
2018-04-07T13:44:33.963Z,129
2018-04-07T13:45:34.663Z,129
2018-04-07T13:46:35.341Z,129
2018-04-07T13:47:36.000Z,129
2018-04-07T13:48:36.665Z,129
2018-04-07T13:49:37.331Z,129
2018-04-07T13:50:38.000Z,129
2018-04-07T13:51:38.701Z,129
2018-04-07T13:52:39.370Z,129
2018-04-07T13:53:40.073Z,129
2018-04-07T13:54:40.738Z,129
2018-04-07T13:55:41.407Z,129
2018-04-07T13:56:42.072Z,129
2018-04-07T13:57:42.742Z,129
2018-04-07T13:58:43.447Z,129
2018-04-07T13:59:44.113Z,129
2018-04-07T14:00:44.780Z,129
2018-04-07T14:01:45.482Z,129
2018-04-07T14:02:46.149Z,129
2018-04-07T14:03:46.817Z,129
2018-04-07T14:04:47.484Z,129
2018-04-07T14:05:48.153Z,129
2018-04-07T14:06:48.822Z,129
2018-04-07T14:07:49.488Z,129
2018-04-07T14:08:50.153Z,129
2018-04-07T14:09:50.820Z,129
2018-04-07T14:10:51.489Z,129
2018-04-07T14:11:52.155Z,129
2018-04-07T14:12:52.825Z,129
2018-04-07T14:13:53.491Z,129
2018-04-07T14:14:54.159Z,129
2018-04-07T14:15:54.826Z,123
2018-04-07T14:16:55.495Z,129
2018-04-07T14:17:56.197Z,129
2018-04-07T14:18:56.870Z,129